Latest Coastal Weather Observations for Coolangatta

IDQ60701

Issued at 12:13 pm EST Sunday 14 April 2024 (issued every 10 minutes, with the page automatically refreshed every 10 minutes)

About coastal observations | Map of coastal stations | Coastal observations for QLD | Marine services | Other Formats
Station Details ID: 040717 Name: COOLANGATTA Lat: -28.17 Lon: 153.51 Height: 4.0 m
Data from the previous 72 hours. | See also: Recent months at Coolangatta

Observations at Coolangatta are collected in the Queensland time zone, which does not include daylight savings during the summer period. Therefore 'Rain since 9am' totals and other values are based on the Queensland time zone.

Date/Time
EST
Wind Sea
Height
m
Swell Vis
km
Cloud Weather Temp
°C
Press
MSL
hPa
Rain since
9am
mm
Dir  Spd
kts
Gust
kts
Height
m
Period
s
Dir
14/12:00pm ENE 8 11 - - - - 10 Mostly clear - 25.7 1022.4 0.0
14/11:30am ENE 8 11 - - - - 10 - - 25.5 1022.8 0.0
14/11:00am NE 8 11 - - - - 10 Partly cloudy - 25.9 1023.1 0.0
14/10:30am NE 7 10 - - - - 10 Partly cloudy - 25.6 1023.4 0.0
14/10:00am NNE 6 9 - - - - 10 Partly cloudy - 25.7 1023.5 0.0
14/09:30am NE 2 6 - - - - 10 Partly cloudy - 25.5 1023.6 0.0
14/09:00am WSW 4 5 - - - - 10 - - 23.9 1023.6 0.0
14/08:30am SW 2 4 - - - - 10 - - 23.6 1023.4 0.0
14/08:00am SSW 2 4 - - - - 10 - - 22.1 1023.2 0.0
14/07:30am WSW 3 4 - - - - 10 - - 20.2 1023.0 0.0
14/07:00am S 2 3 - - - - 10 - - 18.8 1022.7 0.0
14/06:30am CALM 0 0 - - - - 10 - - 18.5 1022.4 0.0
14/06:00am SSW 1 3 - - - - 10 Cloudy - 18.6 1022.1 0.0
14/05:30am SSE 3 4 - - - - 10 Partly cloudy - 18.5 1022.0 0.0
14/05:00am CALM 0 3 - - - - 10 Partly cloudy - 18.5 1021.6 0.0
14/04:43am CALM 0 0 - - - - 10 Cloudy - 18.6 1021.5 0.0
14/04:30am CALM 0 0 - - - - 5 Cloudy - 18.6 1021.5 0.0
14/04:26am CALM 0 0 - - - - 6 Cloudy - 18.6 1021.5 0.0
14/04:00am S 3 3 - - - - 10 Partly cloudy - 18.4 1021.6 0.0
14/03:33am CALM 0 4 - - - - 10 Partly cloudy - 18.5 1021.4 0.0
14/03:30am CALM 0 0 - - - - 10 Partly cloudy - 18.5 1021.4 0.0
14/03:15am CALM 0 0 - - - - 6 Partly cloudy - 18.9 1021.3 0.0
14/03:00am WSW 3 5 - - - - 10 Partly cloudy - 18.9 1021.3 0.0
14/02:43am SSW 3 4 - - - - 10 Partly cloudy - 19.2 1021.3 0.0
14/02:30am CALM 0 0 - - - - 6 Partly cloudy - 19.2 1021.3 0.0
14/02:27am CALM 0 0 - - - - 6 Partly cloudy - 19.1 1021.3 0.0
14/02:00am WSW 3 5 - - - - 10 Partly cloudy - 19.1 1021.4 0.0
14/01:39am WSW 1 4 - - - - 10 Cloudy - 19.1 1021.4 0.0
14/01:30am CALM 0 0 - - - - 8 Partly cloudy - 19.0 1021.5 0.0
14/01:00am SW 1 4 - - - - 5 Partly cloudy - 19.3 1021.8 0.0
14/12:56am SSW 2 4 - - - - 6 Partly cloudy - 19.3 1021.9 0.0
14/12:30am SSW 2 3 - - - - 10 Partly cloudy - 19.3 1022.0 0.0
14/12:00am SW 1 3 - - - - 10 Cloudy - 19.4 1022.1 0.0
 
Date/Time
EST
Wind Sea
Height
m
Swell Vis
km
Cloud Weather Temp
°C
Press
MSL
hPa
Rain since
9am
mm
Dir  Spd
kts
Gust
kts
Height
m
Period
s
Dir
13/11:30pm S 2 4 - - - - 10 Partly cloudy - 19.5 1022.3 0.0
13/11:00pm WSW 6 7 - - - - 10 Partly cloudy - 19.2 1022.3 0.0
13/10:30pm WSW 6 7 - - - - 10 Partly cloudy - 19.4 1022.3 0.0
13/10:00pm WSW 5 7 - - - - 10 Partly cloudy - 19.5 1022.3 0.0
13/09:30pm WSW 5 6 - - - - 10 Partly cloudy - 20.2 1022.3 0.0
13/09:00pm NE 7 10 - - - - 10 Mostly cloudy - 23.1 1022.1 0.0
13/08:30pm NNE 7 9 - - - - 10 Cloudy - 23.2 1022.0 0.0
13/08:00pm NNE 6 8 - - - - 10 Partly cloudy - 22.9 1021.8 0.0
13/07:30pm NNE 8 11 - - - - 10 Partly cloudy - 23.0 1021.5 0.0
13/07:21pm NNE 7 9 - - - - 10 Partly cloudy - 23.1 1021.4 0.0
13/07:04pm WNW 2 3 - - - - 6 Partly cloudy - 21.0 1021.3 0.0
13/07:00pm WNW 3 3 - - - - 9 Partly cloudy - 21.1 1021.3 0.0
13/06:30pm NNW 3 5 - - - - 10 Partly cloudy - 21.7 1021.0 0.0
13/06:00pm NNE 6 7 - - - - 10 Cloudy - 22.9 1020.6 0.0
13/05:30pm NNE 6 8 - - - - 10 - - 23.0 1020.2 0.0
13/05:00pm NE 7 9 - - - - 10 Partly cloudy - 23.6 1019.8 0.0
13/04:30pm NE 7 9 - - - - 10 Partly cloudy - 23.9 1019.7 0.0
13/04:00pm NE 8 10 - - - - 10 Partly cloudy - 24.0 1019.5 0.0
13/03:30pm NE 7 10 - - - - 10 Partly cloudy - 23.9 1019.5 0.0
13/03:00pm ENE 7 10 - - - - 10 Cloudy - 23.9 1019.8 0.0
13/02:30pm ENE 7 10 - - - - 10 Partly cloudy - 23.5 1019.7 0.0
13/02:00pm NE 8 11 - - - - 10 Partly cloudy - 24.2 1019.7 0.0
13/01:30pm ENE 8 10 - - - - 10 Partly cloudy - 24.6 1020.0 0.0
13/01:00pm ENE 10 13 - - - - 10 - - 25.2 1020.1 0.0
13/12:30pm E 10 13 - - - - 10 Partly cloudy - 25.3 1020.4 0.0
13/12:00pm E 9 14 - - - - 10 Partly cloudy - 25.6 1021.0 0.0
13/11:30am ENE 9 12 - - - - 10 - - 24.9 1021.5 0.0
13/11:00am E 7 10 - - - - 10 - - 24.7 1021.8 0.0
13/10:30am ESE 7 10 - - - - 10 - - 25.4 1022.0 0.0
13/10:00am ESE 6 9 - - - - 10 - - 24.3 1022.0 0.0
13/09:30am S 6 9 - - - - 10 - - 24.1 1022.0 0.0
13/09:00am S 7 9 - - - - 10 - - 23.5 1021.9 0.0
13/08:30am S 8 11 - - - - 10 - - 22.7 1021.9 0.0
13/08:00am SW 5 7 - - - - 10 - - 21.6 1021.7 0.0
13/07:30am WSW 5 7 - - - - 10 - - 19.7 1021.3 0.0
13/07:00am SSW 4 5 - - - - 10 - - 18.4 1020.9 0.0
13/06:30am S 5 7 - - - - 10 - - 17.1 1020.9 0.0
13/06:00am SSW 4 5 - - - - 10 - - 17.0 1020.6 0.0
13/05:30am SSW 3 4 - - - - 10 - - 17.1 1020.4 0.0
13/05:00am S 5 7 - - - - 10 Partly cloudy - 17.1 1020.1 0.0
13/04:30am SSE 5 6 - - - - 10 Partly cloudy - 17.2 1019.8 0.0
13/04:10am S 4 5 - - - - 10 - - 16.7 1019.6 0.0
13/04:00am SSW 3 4 - - - - 6 - - 16.9 1019.6 0.0
13/03:51am SSW 3 4 - - - - 6 - - 16.6 1019.4 0.0
13/03:30am CALM 0 0 - - - - 10 - - 17.1 1019.2 0.0
13/03:00am SW 6 7 - - - - 10 - - 17.8 1018.9 0.0
13/02:30am SW 5 6 - - - - 10 - - 17.2 1019.1 0.0
13/02:00am SW 4 5 - - - - 10 - - 16.8 1019.3 0.0
13/01:30am SW 5 6 - - - - 10 - - 17.6 1019.4 0.0
13/01:00am SW 4 5 - - - - 10 - - 17.9 1019.6 0.0
13/12:30am SW 4 4 - - - - 10 - - 17.5 1019.8 0.0
13/12:00am SW 4 5 - - - - 10 - - 18.0 1019.9 0.0
 
Date/Time
EST
Wind Sea
Height
m
Swell Vis
km
Cloud Weather Temp
°C
Press
MSL
hPa
Rain since
9am
mm
Dir  Spd
kts
Gust
kts
Height
m
Period
s
Dir
12/11:30pm SW 4 5 - - - - 10 - - 18.0 1020.1 0.0
12/11:00pm SSW 4 5 - - - - 10 - - 17.6 1020.3 0.0
12/10:30pm SW 4 6 - - - - 10 Partly cloudy - 18.4 1020.3 0.0
12/10:00pm WSW 5 6 - - - - 10 Partly cloudy - 18.4 1020.3 0.0
12/09:30pm WSW 7 8 - - - - 10 - - 18.4 1020.4 0.0
12/09:00pm WSW 6 7 - - - - 10 - - 18.4 1020.3 0.0
12/08:30pm SW 7 8 - - - - 10 - - 19.2 1020.0 0.0
12/08:00pm SW 5 6 - - - - 10 - - 19.7 1019.8 0.0
12/07:30pm SSW 5 7 - - - - 10 - - 19.9 1019.5 0.0
12/07:00pm SSE 5 7 - - - - 10 - - 20.3 1019.3 0.0
12/06:30pm SSE 6 8 - - - - 10 - - 20.8 1019.1 0.0
12/06:00pm SSE 7 11 - - - - 10 - - 21.4 1018.8 0.0
12/05:30pm SSE 9 14 - - - - 10 - - 22.1 1018.5 0.0
12/05:00pm SE 12 16 - - - - 10 - - 22.8 1018.3 0.0
12/04:30pm SSE 11 15 - - - - 10 - - 23.4 1018.1 0.0
12/04:00pm SSE 13 18 - - - - 10 Partly cloudy - 23.7 1017.7 0.0
12/03:30pm SSE 11 14 - - - - 10 Partly cloudy - 24.8 1017.5 0.0
12/03:00pm SSE 11 16 - - - - 10 Partly cloudy - 24.9 1017.6 0.0
12/02:30pm SSE 11 15 - - - - 10 Partly cloudy - 25.1 1017.8 0.0
12/02:00pm SSE 13 18 - - - - 10 Partly cloudy - 25.2 1017.8 0.0
12/01:30pm SSE 12 21 - - - - 10 Partly cloudy - 25.7 1018.0 0.0
12/01:00pm SSE 11 17 - - - - 10 Partly cloudy - 26.0 1018.1 0.0
12/12:30pm SSE 11 17 - - - - 10 Partly cloudy - 24.4 1018.4 0.0
12/12:00pm S 11 14 - - - - 10 Mostly clear - 25.4 1018.7 0.0
12/11:30am SSW 11 14 - - - - 10 Partly cloudy - 24.8 1019.3 0.0
12/11:00am SSW 8 11 - - - - 10 Partly cloudy - 25.1 1019.6 0.0
12/10:30am SSW 9 14 - - - - 10 Partly cloudy - 24.7 1019.9 0.0
12/10:00am SW 9 13 - - - - 10 Partly cloudy - 23.4 1020.1 0.0
12/09:30am SW 10 16 - - - - 10 Partly cloudy - 23.0 1020.2 0.0
12/09:00am SSW 8 12 - - - - 10 Cloudy - 21.3 1020.2 0.0
12/08:30am SSW 8 13 - - - - 10 Partly cloudy - 21.2 1020.1 0.0
12/08:00am SSW 9 15 - - - - 10 Partly cloudy - 21.4 1019.5 0.0
12/07:30am SSW 10 16 - - - - 10 Partly cloudy - 20.4 1019.3 0.0
12/07:00am SSW 8 13 - - - - 10 - - 19.6 1019.2 0.0
12/06:30am SSW 5 8 - - - - 10 - - 18.8 1018.9 0.0
12/06:00am SSW 8 12 - - - - 10 - - 18.9 1018.5 0.0
12/05:30am SSW 8 13 - - - - 10 - - 18.9 1018.2 0.0
12/05:00am SSW 7 12 - - - - 10 - - 19.2 1017.9 0.0
12/04:30am SSW 8 13 - - - - 10 - - 19.5 1017.5 0.0
12/04:00am SW 8 12 - - - - 10 - - 19.4 1017.5 0.0
12/03:30am SW 9 13 - - - - 10 - - 19.7 1017.5 0.0
12/03:00am SW 8 14 - - - - 10 - - 19.6 1017.5 0.0
12/02:30am SW 9 13 - - - - 10 - - 19.8 1017.6 0.0
12/02:00am SSW 8 11 - - - - 10 - - 19.8 1017.9 0.0
12/01:30am SW 7 10 - - - - 10 Partly cloudy - 19.8 1018.2 0.0
12/01:00am SSW 7 9 - - - - 10 - - 19.8 1018.3 0.0
12/12:30am SSW 6 9 - - - - 10 - - 19.7 1018.5 0.0
12/12:00am SW 6 9 - - - - 10 - - 19.6 1018.6 0.0
 
Date/Time
EST
Wind Sea
Height
m
Swell Vis
km
Cloud Weather Temp
°C
Press
MSL
hPa
Rain since
9am
mm
Dir  Spd
kts
Gust
kts
Height
m
Period
s
Dir
11/11:30pm SSW 6 9 - - - - 10 - - 20.1 1018.7 0.0
11/11:00pm SSW 7 9 - - - - 10 - - 20.2 1018.6 0.0
11/10:30pm SSW 7 10 - - - - 10 - - 20.1 1018.6 0.0
11/10:00pm SSW 6 8 - - - - 10 - - 19.9 1018.9 0.0
11/09:30pm SSW 7 9 - - - - 10 - - 20.0 1019.0 0.0
11/09:00pm SSW 8 11 - - - - 10 - - 20.6 1018.9 0.0
11/08:30pm SSW 6 9 - - - - 10 - - 20.2 1018.8 0.0
11/08:00pm SSW 7 9 - - - - 10 - - 20.4 1018.8 0.0
11/07:30pm SSW 7 10 - - - - 10 - - 20.5 1018.7 0.0
11/07:00pm SSW 8 12 - - - - 10 - - 21.0 1018.4 0.0
11/06:30pm SSW 9 15 - - - - 10 - - 21.1 1018.0 0.0
11/06:00pm SSW 9 13 - - - - 10 - - 21.2 1017.6 0.0
11/05:30pm SSW 8 13 - - - - 10 - - 21.4 1017.3 0.0
11/05:00pm SSW 8 13 - - - - 10 - - 22.2 1016.9 0.0
11/04:30pm S 10 15 - - - - 10 - - 23.4 1016.5 0.0
11/04:00pm S 12 19 - - - - 10 Partly cloudy - 24.0 1016.2 0.0
11/03:30pm S 11 17 - - - - 10 Partly cloudy - 25.2 1015.8 0.0
11/03:00pm SSE 12 17 - - - - 10 Mostly clear - 25.0 1015.7 0.0
11/02:30pm S 9 16 - - - - 10 Partly cloudy - 26.1 1015.5 0.0
11/02:00pm SSE 11 15 - - - - 10 - - 25.5 1015.5 0.0
11/01:30pm SSW 9 14 - - - - 10 - - 25.9 1015.7 0.0
11/01:00pm SSE 10 15 - - - - 10 - - 25.4 1015.8 0.0
11/12:30pm S 11 15 - - - - 10 - - 25.4 1016.1 0.0

Other formats

Comma delimited format used in spreadsheet applications
http://www.bom.gov.au/fwo/IDQ60701/IDQ60701.94592.axf

JavaScript Object Notation format (JSON) in row-major order
http://www.bom.gov.au/fwo/IDQ60701/IDQ60701.94592.json

Data quality

Most of these data are generated automatically and are frequently updated. Quality checks on data are not normally performed. It is possible for incorrect values to appear. Refer to information at About Latest Weather Observations and please check the disclaimer before using these data.